Bronson, Michigan
Current Conditions -  °F | °C
As of 8:54 PM on Saturday 25 Oct 2014 (Local Time) from KOEB Reporting Station
Clear Clear  
Wind Chill: 56°   Ceiling: Unl
Heat Index: 56°   Visibility: 10mi
Dew Point: 35°   Wind: 7mph
Humidity: 45%   Direction: 280°W
Pressure: 29.86"   Gusts: NA
Location:  41.87°N, 85.19°W
Report Text: KOEB 260054Z AUTO 28006KT 10SM CLR 13/01 A2986 RMK AO2 T01330014
Loading
Personal Weather Stations






























Interactive Weather Map New forecast layout! Learn more

10-Day Weather Forecast

Advertisements
Track Severe Weather on mobile